EW9931 Weather Reports


time (UTC)temp
F
wind
direction
speed
knots
gust
knots
rain 1hr
in
rain 24hr
in
rain mn
in
humidity
%
barometer
mb
20240723063026 63 179 0.0 0.0 0.00 0.00 0.00 57 1002.4
20240723061525 63 179 0.0 0.0 0.00 0.00 0.00 56 1001.9
20240723060032 63 179 0.0 0.0 0.00 0.00 0.00 56 1002.3
20240723054531 63 179 0.0 0.0 0.00 0.00 0.00 55 1002.5
20240723053024 64 179 0.0 0.0 0.00 0.00 0.00 55 1002.4
20240723051535 64 179 0.0 0.0 0.00 0.00 0.00 54 1002.4
20240723050022 64 179 0.0 0.0 0.00 0.00 0.00 56 1003.6
20240723044518 64 179 0.0 0.0 0.00 0.00 0.00 57 1003.2
20240723043016 65 179 0.0 0.0 0.00 0.00 0.00 53 1003.4
20240723041518 65 179 0.0 0.0 0.00 0.00 0.00 52 1002.6
20240723040012 66 179 0.0 0.0 0.00 0.00 0.00 53 1003.7
20240723034510 67 179 0.0 0.0 0.00 0.00 0.00 50 1003.7
20240723033010 68 179 0.0 0.0 0.00 0.00 0.00 51 1003.2
20240723031504 69 179 0.0 0.0 0.00 0.00 0.00 46 1003.3
20240723030003 70 179 0.0 0.0 0.00 0.00 0.00 47 1003.4
20240723024559 71 179 0.0 0.0 0.00 0.00 0.00 46 1002.7
20240723023058 71 179 0.0 0.0 0.00 0.00 0.00 43 1002.8
20240723021607 72 179 0.0 0.0 0.00 0.00 0.00 45 1002.1
20240723020054 73 178 0.0 0.0 0.00 0.00 0.00 43 1002.1
20240723014555 74 178 0.0 0.0 0.00 0.00 0.00 43 1001.5
20240723013108 75 178 0.0 0.0 0.00 0.00 0.00 43 1001.0
20240723011555 76 178 0.0 0.0 0.00 0.00 0.00 48 1000.6
20240723010045 77 195 0.0 0.0 0.00 0.00 0.00 45 1000.0
20240723004545 78 172 0.0 0.0 0.00 0.00 0.00 36 1000.8
20240723003043 78 203 0.9 0.0 0.00 0.00 0.00 34 1000.8
20240723001542 78 240 0.0 0.0 0.00 0.00 0.00 33 1000.9
20240723000044 78 256 0.9 0.0 0.00 0.00 0.00 34 1001.6
20240722234541 78 258 0.0 0.0 0.00 0.00 0.00 34 1001.2
20240722233040 0 0.0 0.0 0.00 0.00 0.00 1004.4
20240722231540 0 0.0 0.0 0.00 0.00 0.00 1004.5
20240722230030 78 244 0.0 0.0 0.00 0.00 0.00 40 1000.5
20240722224529 78 260 0.9 0.0 0.00 0.00 0.00 41 1000.6
20240722223028 78 240 0.9 0.0 0.00 0.00 0.00 40 1000.6
20240722221526 79 244 0.0 0.0 0.00 0.00 0.00 1004.1
20240722214504 77 227 0.9 0.0 0.00 0.00 0.40 55 1001.1
20240722213114 76 226 0.0 0.0 0.00 0.00 0.40 57 1001.8
20240722211556 74 226 0.0 0.0 0.00 0.00 0.40 62 1001.8
20240722210051 71 226 0.0 0.0 0.00 0.00 0.40 67 1001.5
20240722204548 68 226 0.0 0.0 0.00 0.00 0.40 83 1002.4
20240722203042 63 226 0.0 0.0 0.00 0.00 0.40 87 1003.9
20240722201538 62 226 0.0 0.0 0.00 0.00 0.40 83 1004.7
20240722200040 62 226 0.0 0.0 0.00 0.00 0.40 75 1004.8
20240722194536 67 226 0.9 0.0 0.00 0.00 0.39 65 1003.7
20240722193025 75 147 0.9 0.0 0.00 0.00 0.04 55 1002.6
20240722191521 79 263 0.0 0.0 0.00 0.00 0.00 34 1001.2
20240722190020 79 263 0.0 0.0 0.00 0.00 0.00 32 1001.1
20240722184512 79 356 0.9 0.0 0.00 0.00 0.00 30 1001.3
20240722183009 80 333 1.7 0.0 0.00 0.00 0.00 30 1001.2
20240722181508 82 246 0.9 0.0 0.00 0.00 0.00 29 1000.8
20240722180115 80 254 0.0 0.0 0.00 0.00 0.00 31 1001.2
20240722174555 79 344 1.7 0.0 0.00 0.00 0.00 30 1001.3
20240722173108 79 257 0.0 0.0 0.00 0.00 0.00 31 1001.7
20240722171546 78 222 0.9 0.0 0.00 0.00 0.00 33 1001.6
20240722170041 77 296 0.0 0.0 0.00 0.00 0.00 33 1001.6
20240722164539 77 288 0.0 0.0 0.00 0.00 0.00 32 1001.4
20240722163033 75 318 0.0 0.0 0.00 0.00 0.00 35 1001.7
20240722161544 73 318 0.0 0.0 0.00 0.00 0.00 35 1002.3
20240722160024 72 318 0.0 0.0 0.00 0.00 0.00 36 1002.8
20240722154519 70 318 0.0 0.0 0.00 0.00 0.00 39 1002.6
20240722153025 68 318 0.0 0.0 0.00 0.00 0.00 43 1002.8
20240722151511 67 318 0.0 0.0 0.00 0.00 0.00 47 1003.3
20240722150006 65 319 0.0 0.0 0.00 0.00 0.00 55 1003.2
20240722144506 64 318 0.0 0.0 0.00 0.00 0.00 58 1003.5
20240722143101 63 318 0.0 0.0 0.00 0.00 0.00 59 1003.6
20240722141601 63 318 0.0 0.0 0.00 0.00 0.00 58 1004.1
20240722140050 62 318 0.0 0.0 0.00 0.00 0.00 54 1003.6
20240722134555 62 318 0.0 0.0 0.00 0.00 0.00 52 1003.6
20240722133046 63 318 0.0 0.0 0.00 0.00 0.00 51 1003.7
20240722131545 63 151 0.0 0.0 0.00 0.00 0.00 49 1003.7
20240722130045 63 151 0.0 0.0 0.00 0.00 0.00 48 1002.5
20240722124556 64 151 0.0 0.0 0.00 0.00 0.00 47 1002.3
20240722123045 64 151 0.0 0.0 0.00 0.00 0.00 46 1002.5
20240722121543 64 151 0.0 0.0 0.00 0.00 0.00 47 1002.4
20240722120053 64 151 0.0 0.0 0.00 0.00 0.00 48 1001.8
20240722114542 63 151 0.0 0.0 0.00 0.00 0.00 49 1001.8
20240722113054 62 151 0.0 0.0 0.00 0.00 0.00 52 1002.1
20240722111540 62 151 0.0 0.0 0.00 0.00 0.00 52 1002.0
20240722110039 63 151 0.0 0.0 0.00 0.00 0.00 52 1001.5
20240722104542 63 151 0.0 0.0 0.00 0.00 0.00 51 1001.4
20240722103044 63 151 0.0 0.0 0.00 0.00 0.00 50 1001.1
20240722101534 64 151 0.0 0.0 0.00 0.00 0.00 49 1001.3
20240722100032 64 151 0.0 0.0 0.00 0.00 0.00 48 1000.8
20240722094529 65 151 0.0 0.0 0.00 0.00 0.00 47 1000.7
20240722093034 66 151 0.0 0.0 0.00 0.00 0.00 45 1000.3
20240722091528 67 151 0.0 0.0 0.00 0.00 0.00 44 1000.4
20240722090024 67 151 0.0 0.0 0.00 0.00 0.00 43 1000.4
20240722084537 68 151 0.0 0.0 0.00 0.00 0.00 43 1000.4
20240722083032 68 151 0.0 0.0 0.00 0.00 0.00 43 1000.4
20240722081522 68 151 0.9 0.0 0.00 0.00 0.00 43 1000.5
20240722080021 68 151 1.7 0.0 0.00 0.00 0.00 43 1000.1
20240722074518 68 151 1.7 0.0 0.00 0.00 0.00 44 1000.5
20240722073016 68 151 0.0 0.0 0.00 0.00 0.00 45 1000.5
20240722071509 68 151 0.0 0.0 0.00 0.00 0.00 44 1000.4
20240722070005 68 151 0.0 0.0 0.00 0.00 0.00 45 1001.0
20240722064601 68 151 0.0 0.0 0.00 0.00 0.00 43 1000.6